createdAt,value
2019-01-23T00:01:08.481Z,133.15
2019-01-23T00:03:35.561Z,121.13
2019-01-23T00:06:02.614Z,116.57
2019-01-23T00:08:29.672Z,117.95
2019-01-23T00:10:56.750Z,133.07
2019-01-23T00:13:23.823Z,115.77
2019-01-23T00:15:53.683Z,126.62
2019-01-23T00:18:20.773Z,113.75
2019-01-23T00:20:47.851Z,108.83
2019-01-23T00:23:15.122Z,115.10
2019-01-23T00:25:42.186Z,137.00
2019-01-23T00:28:09.214Z,113.45
2019-01-23T00:30:36.276Z,112.57
2019-01-23T00:33:03.370Z,110.15
2019-01-23T00:35:30.428Z,121.22
2019-01-23T00:37:57.516Z,115.90
2019-01-23T00:40:24.553Z,113.12
2019-01-23T00:42:51.618Z,127.12
2019-01-23T00:45:18.670Z,104.45
2019-01-23T00:47:45.711Z,122.78
2019-01-23T00:50:53.600Z,125.20
2019-01-23T00:53:20.675Z,122.78
2019-01-23T00:55:47.703Z,116.45
2019-01-23T00:58:14.758Z,125.45
2019-01-23T01:00:41.798Z,107.30
2019-01-23T01:03:08.951Z,124.75
2019-01-23T01:05:36.002Z,110.75
2019-01-23T01:08:43.942Z,107.55
2019-01-23T01:11:10.998Z,110.45
2019-01-23T01:13:38.066Z,112.62
2019-01-23T01:16:05.118Z,112.83
2019-01-23T01:18:32.157Z,112.05
2019-01-23T01:20:59.250Z,116.95
2019-01-23T01:23:26.282Z,115.12
2019-01-23T01:25:53.397Z,109.03
2019-01-23T01:28:20.491Z,113.17
2019-01-23T01:30:47.589Z,125.58
2019-01-23T01:33:14.642Z,111.20
2019-01-23T01:35:41.707Z,119.90
2019-01-23T01:38:08.800Z,133.63
2019-01-23T01:40:35.884Z,125.25
2019-01-23T01:43:02.953Z,127.22
2019-01-23T01:45:30.010Z,133.05
2019-01-23T01:47:57.062Z,129.90
2019-01-23T01:50:24.149Z,130.75
2019-01-23T01:52:51.185Z,127.17
2019-01-23T01:55:18.221Z,129.90
2019-01-23T01:57:45.564Z,123.22
2019-01-23T02:00:22.674Z,118.13
2019-01-23T02:02:49.818Z,113.25
2019-01-23T02:05:17.006Z,132.07
2019-01-23T02:07:44.155Z,107.32
2019-01-23T02:10:13.094Z,114.25
2019-01-23T02:12:40.179Z,116.55
2019-01-23T02:15:08.323Z,136.77
2019-01-23T02:17:35.368Z,111.05
2019-01-23T02:20:03.540Z,115.62
2019-01-23T02:22:30.581Z,117.10
2019-01-23T02:24:57.652Z,109.15
2019-01-23T02:27:24.686Z,119.45
2019-01-23T02:29:51.748Z,108.22
2019-01-23T02:32:18.819Z,109.75
2019-01-23T02:34:45.912Z,102.72
2019-01-23T02:37:12.948Z,102.70
2019-01-23T02:39:40.028Z,114.97
2019-01-23T02:42:07.067Z,106.20
2019-01-23T02:44:34.140Z,113.50
2019-01-23T02:47:01.187Z,102.07
2019-01-23T02:49:28.239Z,104.20
2019-01-23T02:51:55.358Z,109.17
2019-01-23T02:54:22.434Z,121.85
2019-01-23T02:56:49.492Z,118.13
2019-01-23T02:59:17.433Z,115.60
2019-01-23T03:01:51.556Z,113.90
2019-01-23T03:04:18.709Z,114.00
2019-01-23T03:06:45.847Z,115.22
2019-01-23T03:09:12.892Z,115.05
2019-01-23T03:11:39.960Z,120.57
2019-01-23T03:14:07.029Z,131.47
2019-01-23T03:16:34.098Z,116.75
2019-01-23T03:19:01.140Z,97.33
2019-01-23T03:21:28.213Z,105.27
2019-01-23T03:23:55.395Z,119.40
2019-01-23T03:26:22.454Z,112.95
2019-01-23T03:28:49.534Z,109.75
2019-01-23T03:31:16.601Z,112.80
2019-01-23T03:33:43.683Z,117.95
2019-01-23T03:36:10.755Z,116.42
2019-01-23T03:38:37.829Z,110.97
2019-01-23T03:41:04.908Z,107.07
2019-01-23T03:43:31.942Z,112.68
2019-01-23T03:45:59.074Z,102.35
2019-01-23T03:48:26.121Z,115.82
2019-01-23T03:50:53.201Z,122.28
2019-01-23T03:53:20.209Z,99.95
2019-01-23T03:55:47.254Z,105.45
2019-01-23T03:58:14.305Z,112.68
2019-01-23T04:00:41.332Z,111.65
2019-01-23T04:03:08.389Z,111.47
2019-01-23T04:05:35.498Z,111.95
2019-01-23T04:08:02.552Z,115.97
2019-01-23T04:10:29.620Z,120.85
2019-01-23T04:12:56.682Z,107.17
2019-01-23T04:15:23.754Z,120.33
2019-01-23T04:17:50.845Z,112.92
2019-01-23T04:20:19.519Z,129.03
2019-01-23T04:22:46.572Z,105.00
2019-01-23T04:25:13.723Z,102.02
2019-01-23T04:27:40.846Z,99.92
2019-01-23T04:30:10.607Z,128.72
2019-01-23T04:32:37.640Z,119.40
2019-01-23T04:35:05.355Z,114.47
2019-01-23T04:37:32.400Z,124.97
2019-01-23T04:39:59.478Z,125.18
2019-01-23T04:42:26.526Z,121.50
2019-01-23T04:44:53.610Z,119.60
2019-01-23T04:47:20.687Z,120.55
2019-01-23T04:49:47.722Z,126.10
2019-01-23T04:52:32.935Z,123.80
2019-01-23T04:54:59.987Z,115.32
2019-01-23T04:57:27.040Z,115.30
2019-01-23T04:59:54.125Z,133.07
2019-01-23T05:02:21.222Z,140.00
2019-01-23T05:04:48.306Z,127.05
2019-01-23T05:07:15.338Z,113.35
2019-01-23T05:09:42.403Z,111.72
2019-01-23T05:12:09.468Z,112.37
2019-01-23T05:14:36.498Z,122.85
2019-01-23T05:17:03.689Z,126.58
2019-01-23T05:19:30.746Z,115.20
2019-01-23T05:21:57.810Z,122.47
2019-01-23T05:24:24.860Z,134.55
2019-01-23T05:26:51.896Z,116.85
2019-01-23T05:29:18.924Z,115.25
2019-01-23T05:31:45.984Z,134.37
2019-01-23T05:34:13.015Z,127.50
2019-01-23T05:36:40.094Z,130.80
2019-01-23T05:39:07.746Z,129.45
2019-01-23T05:41:34.838Z,144.45
2019-01-23T05:44:01.878Z,132.15
2019-01-23T05:46:28.937Z,131.32
2019-01-23T05:48:55.996Z,134.67
2019-01-23T05:51:23.074Z,115.90
2019-01-23T05:53:50.122Z,132.93
2019-01-23T05:56:17.177Z,108.42
2019-01-23T05:58:44.195Z,129.75
2019-01-23T06:01:11.284Z,141.85
2019-01-23T06:03:38.376Z,122.33
2019-01-23T06:06:05.451Z,119.37
2019-01-23T06:08:32.491Z,128.45
2019-01-23T06:10:59.579Z,103.02
2019-01-23T06:13:26.635Z,108.65
2019-01-23T06:15:53.715Z,115.65
2019-01-23T06:18:20.795Z,100.18
2019-01-23T06:20:47.883Z,132.82
2019-01-23T06:23:14.931Z,122.00
2019-01-23T06:25:41.984Z,98.90
2019-01-23T06:28:09.091Z,118.77
2019-01-23T06:30:36.151Z,102.80
2019-01-23T06:33:03.209Z,108.60
2019-01-23T06:35:30.281Z,122.82
2019-01-23T06:37:57.360Z,119.10
2019-01-23T06:40:24.411Z,110.70
2019-01-23T06:42:51.505Z,107.52
2019-01-23T06:45:18.781Z,118.30
2019-01-23T06:47:46.585Z,131.80
2019-01-23T06:50:15.453Z,133.35
2019-01-23T06:52:42.517Z,116.33
2019-01-23T06:55:09.792Z,118.62
2019-01-23T06:57:36.859Z,113.30
2019-01-23T07:00:06.156Z,114.60
2019-01-23T07:02:33.196Z,128.35
2019-01-23T07:05:00.258Z,103.58
2019-01-23T07:07:27.292Z,101.25
2019-01-23T07:09:54.405Z,117.87
2019-01-23T07:12:21.474Z,115.45
2019-01-23T07:14:48.533Z,96.15
2019-01-23T07:17:15.584Z,112.57
2019-01-23T07:19:42.693Z,98.85
2019-01-23T07:22:09.750Z,102.60
2019-01-23T07:24:36.855Z,95.25
2019-01-23T07:27:03.909Z,117.70
2019-01-23T07:29:31.008Z,153.68
2019-01-23T07:31:58.176Z,169.68
2019-01-23T07:34:25.216Z,150.35
2019-01-23T07:36:52.269Z,134.90
2019-01-23T07:39:19.314Z,144.97
2019-01-23T07:41:46.359Z,146.55
2019-01-23T07:44:13.448Z,127.17
2019-01-23T07:46:40.530Z,127.97
2019-01-23T07:49:07.562Z,123.33
2019-01-23T07:51:34.621Z,130.32
2019-01-23T07:54:01.804Z,136.10
2019-01-23T07:56:28.876Z,140.85
2019-01-23T07:58:55.959Z,138.68
2019-01-23T08:01:23.006Z,143.15
2019-01-23T08:03:50.084Z,125.80
2019-01-23T08:06:17.198Z,127.87
2019-01-23T08:08:44.301Z,117.10
2019-01-23T08:11:11.382Z,137.52
2019-01-23T08:13:38.455Z,121.50
2019-01-23T08:16:05.519Z,140.88
2019-01-23T08:18:32.591Z,143.37
2019-01-23T08:20:59.662Z,128.87
2019-01-23T08:23:26.697Z,147.00
2019-01-23T08:25:53.790Z,154.15
2019-01-23T08:28:20.847Z,150.70
2019-01-23T08:30:47.912Z,134.70
2019-01-23T08:33:14.965Z,132.03
2019-01-23T08:35:42.016Z,153.45
2019-01-23T08:38:09.091Z,138.45
2019-01-23T08:40:36.132Z,143.28
2019-01-23T08:43:44.059Z,130.57
2019-01-23T08:46:11.145Z,123.62
2019-01-23T08:48:38.205Z,108.52
2019-01-23T08:51:05.277Z,133.93
2019-01-23T08:53:32.420Z,110.70
2019-01-23T08:55:59.469Z,138.00
2019-01-23T08:58:26.550Z,139.12
2019-01-23T09:00:53.633Z,147.17
2019-01-23T09:03:20.717Z,137.57
2019-01-23T09:05:47.739Z,127.27
2019-01-23T09:08:14.816Z,136.88
2019-01-23T09:10:41.869Z,121.85
2019-01-23T09:13:08.918Z,118.57
2019-01-23T09:15:36.065Z,130.00
2019-01-23T09:21:05.437Z,117.82
2019-01-23T09:23:32.527Z,107.40
2019-01-23T09:25:59.616Z,122.20
2019-01-23T09:28:26.724Z,101.18
2019-01-23T09:31:17.218Z,99.62
2019-01-23T09:34:23.224Z,101.05
2019-01-23T09:37:29.248Z,111.83
2019-01-23T09:40:35.284Z,116.35
2019-01-23T09:43:52.706Z,105.78
2019-01-23T09:46:45.417Z,127.32
2019-01-23T09:49:46.960Z,106.50
2019-01-23T09:52:32.249Z,98.87
2019-01-23T09:54:59.304Z,106.30
2019-01-23T09:57:26.398Z,102.17
2019-01-23T09:59:53.436Z,96.92
2019-01-23T10:02:20.528Z,99.75
2019-01-23T10:04:47.570Z,93.82
2019-01-23T10:07:14.605Z,83.27
2019-01-23T10:09:41.697Z,91.12
2019-01-23T10:12:08.786Z,93.75
2019-01-23T10:14:35.822Z,91.10
2019-01-23T10:17:02.972Z,87.47
2019-01-23T10:19:30.029Z,84.15
2019-01-23T10:21:57.071Z,85.95
2019-01-23T10:24:24.128Z,78.50
2019-01-23T10:26:51.149Z,88.22
2019-01-23T10:29:18.210Z,95.00
2019-01-23T10:31:45.262Z,93.03
2019-01-23T10:34:12.330Z,81.42
2019-01-23T10:36:39.384Z,85.20
2019-01-23T10:39:07.701Z,91.50
2019-01-23T10:41:34.766Z,106.32
2019-01-23T10:44:01.812Z,84.58
2019-01-23T10:46:28.896Z,99.58
2019-01-23T10:48:55.956Z,92.60
2019-01-23T10:51:23.011Z,109.97
2019-01-23T10:53:50.055Z,97.25
2019-01-23T10:56:17.123Z,103.75
2019-01-23T10:58:44.165Z,84.07
2019-01-23T11:01:13.484Z,81.70
2019-01-23T11:03:40.181Z,95.07
2019-01-23T11:06:07.329Z,82.37
2019-01-23T11:08:34.394Z,96.15
2019-01-23T11:11:01.471Z,83.80
2019-01-23T11:13:28.548Z,85.77
2019-01-23T11:15:55.611Z,95.83
2019-01-23T11:18:22.685Z,90.60
2019-01-23T11:20:49.715Z,106.65
2019-01-23T11:23:16.861Z,93.62
2019-01-23T11:25:43.913Z,86.57
2019-01-23T11:28:10.985Z,94.85
2019-01-23T11:30:38.046Z,86.67
2019-01-23T11:33:05.108Z,101.27
2019-01-23T11:35:32.157Z,86.42
2019-01-23T11:37:59.206Z,83.45
2019-01-23T11:40:27.978Z,88.75
2019-01-23T11:42:55.036Z,83.55
2019-01-23T11:45:22.077Z,95.92
2019-01-23T11:47:49.127Z,78.55
2019-01-23T11:50:21.281Z,93.52
2019-01-23T11:52:45.721Z,92.95
2019-01-23T11:55:13.002Z,87.17
2019-01-23T11:57:40.058Z,88.40
2019-01-23T12:00:10.916Z,78.87
2019-01-23T12:02:37.988Z,98.52
2019-01-23T12:05:06.897Z,88.33
2019-01-23T12:07:34.004Z,85.87
2019-01-23T12:10:01.058Z,95.40
2019-01-23T12:12:28.128Z,103.78
2019-01-23T12:14:55.198Z,87.25
2019-01-23T12:17:22.285Z,77.30
2019-01-23T12:19:49.362Z,95.00
2019-01-23T12:22:16.438Z,89.10
2019-01-23T12:24:43.464Z,80.83
2019-01-23T12:27:10.529Z,92.05
2019-01-23T12:29:37.607Z,89.52
2019-01-23T12:32:04.650Z,91.05
2019-01-23T12:34:31.718Z,95.40
2019-01-23T12:36:58.771Z,86.10
2019-01-23T12:39:25.822Z,85.83
2019-01-23T12:41:52.868Z,91.35
2019-01-23T12:44:19.914Z,99.92
2019-01-23T12:46:46.961Z,102.95
2019-01-23T12:49:14.025Z,90.40
2019-01-23T12:51:41.080Z,86.72
2019-01-23T12:54:08.128Z,96.08
2019-01-23T12:56:35.149Z,98.33
2019-01-23T12:59:02.182Z,100.20
2019-01-23T13:01:29.266Z,99.45
2019-01-23T13:03:56.308Z,99.03
2019-01-23T13:06:23.378Z,101.62
2019-01-23T13:08:50.417Z,105.67
2019-01-23T13:11:17.463Z,110.10
2019-01-23T13:13:44.515Z,105.32
2019-01-23T13:16:11.597Z,98.15
2019-01-23T13:18:38.653Z,106.85
2019-01-23T13:21:05.701Z,110.80
2019-01-23T13:23:32.740Z,117.80
2019-01-23T13:25:59.780Z,99.90
2019-01-23T13:28:26.813Z,109.12
2019-01-23T13:30:53.877Z,105.07
2019-01-23T13:33:20.922Z,89.45
2019-01-23T13:35:47.960Z,106.58
2019-01-23T13:38:16.981Z,108.35
2019-01-23T13:40:44.034Z,97.05
2019-01-23T13:43:11.094Z,97.97
2019-01-23T13:45:38.132Z,111.05
2019-01-23T13:48:06.847Z,106.97
2019-01-23T13:50:33.950Z,113.88
2019-01-23T13:53:01.001Z,92.50
2019-01-23T13:55:28.040Z,98.22
2019-01-23T13:57:55.041Z,106.35
2019-01-23T14:00:24.767Z,94.87
2019-01-23T14:02:51.812Z,89.90
2019-01-23T14:05:18.856Z,101.18
2019-01-23T14:07:45.893Z,99.80
2019-01-23T14:10:13.481Z,108.47
2019-01-23T14:12:40.548Z,94.28
2019-01-23T14:15:10.330Z,99.32
2019-01-23T14:17:37.390Z,97.22
2019-01-23T14:20:05.792Z,108.47
2019-01-23T14:22:32.888Z,100.10
2019-01-23T14:24:59.921Z,107.75
2019-01-23T14:27:26.999Z,105.87
2019-01-23T14:29:54.047Z,92.65
2019-01-23T14:32:21.373Z,95.40
2019-01-23T14:34:48.434Z,100.00
2019-01-23T14:37:15.494Z,94.90
2019-01-23T14:39:42.566Z,94.37
2019-01-23T14:42:09.612Z,96.92
2019-01-23T14:44:36.693Z,89.22
2019-01-23T14:47:03.777Z,93.95
2019-01-23T14:49:30.848Z,87.82
2019-01-23T14:51:57.909Z,103.75
2019-01-23T14:54:25.001Z,103.53
2019-01-23T14:56:52.052Z,102.70
2019-01-23T14:59:19.137Z,89.75
2019-01-23T15:01:46.204Z,88.20
2019-01-23T15:04:13.301Z,111.95
2019-01-23T15:06:40.389Z,98.25
2019-01-23T15:09:07.502Z,98.95
2019-01-23T15:11:34.561Z,92.60
2019-01-23T15:14:01.639Z,103.95
2019-01-23T15:16:28.694Z,106.10
2019-01-23T15:18:55.796Z,96.10
2019-01-23T15:21:22.817Z,99.35
2019-01-23T15:23:49.877Z,100.50
2019-01-23T15:26:16.947Z,102.12
2019-01-23T15:28:44.032Z,98.52
2019-01-23T15:31:11.111Z,113.37
2019-01-23T15:33:38.193Z,95.47
2019-01-23T15:36:05.324Z,91.72
2019-01-23T15:38:32.391Z,94.72
2019-01-23T15:40:59.504Z,87.50
2019-01-23T15:43:26.564Z,86.82
2019-01-23T15:45:53.613Z,104.50
2019-01-23T15:48:20.695Z,101.27
2019-01-23T15:50:47.764Z,103.87
2019-01-23T15:53:16.734Z,99.13
2019-01-23T15:55:43.805Z,109.17
2019-01-23T15:58:10.889Z,92.08
2019-01-23T16:00:38.160Z,97.45
2019-01-23T16:03:05.203Z,106.20
2019-01-23T16:05:32.289Z,94.55
2019-01-23T16:07:59.396Z,111.88
2019-01-23T16:10:27.488Z,93.62
2019-01-23T16:12:54.599Z,100.82
2019-01-23T16:15:22.642Z,100.70
2019-01-23T16:17:49.736Z,98.33
2019-01-23T16:20:19.309Z,105.95
2019-01-23T16:22:46.492Z,95.42
2019-01-23T16:25:14.144Z,93.87
2019-01-23T16:27:41.264Z,97.78
2019-01-23T16:30:12.745Z,90.90
2019-01-23T16:32:47.087Z,94.40
2019-01-23T16:35:14.232Z,89.22
2019-01-23T16:37:41.435Z,94.15
2019-01-23T16:40:08.580Z,88.22
2019-01-23T16:42:35.692Z,90.53
2019-01-23T16:45:03.921Z,95.47
2019-01-23T16:47:30.996Z,90.28
2019-01-23T16:49:58.148Z,96.65
2019-01-23T16:52:25.300Z,93.58
2019-01-23T16:54:52.400Z,96.92
2019-01-23T16:57:19.507Z,106.15
2019-01-23T16:59:46.645Z,98.78
2019-01-23T17:02:13.742Z,97.62
2019-01-23T17:04:40.895Z,93.92
2019-01-23T17:07:08.022Z,101.18
2019-01-23T17:09:35.142Z,100.20
2019-01-23T17:12:09.009Z,102.80
2019-01-23T17:14:31.323Z,97.88
2019-01-23T17:16:58.521Z,92.40
2019-01-23T17:19:25.644Z,93.58
2019-01-23T17:21:52.784Z,102.85
2019-01-23T17:24:19.892Z,99.17
2019-01-23T17:26:47.031Z,103.17
2019-01-23T17:29:17.602Z,91.47
2019-01-23T17:31:44.752Z,110.83
2019-01-23T17:34:12.525Z,86.67
2019-01-23T17:36:39.636Z,88.90
2019-01-23T17:39:08.519Z,100.70
2019-01-23T17:41:35.714Z,101.97
2019-01-23T17:44:03.231Z,97.25
2019-01-23T17:46:30.767Z,97.65
2019-01-23T17:48:58.051Z,97.70
2019-01-23T17:51:25.617Z,99.90
2019-01-23T17:53:52.949Z,90.35
2019-01-23T17:56:21.079Z,96.53
2019-01-23T17:58:48.206Z,98.75
2019-01-23T18:01:15.357Z,95.60
2019-01-23T18:03:42.507Z,97.72
2019-01-23T18:06:09.965Z,104.15
2019-01-23T18:08:37.107Z,97.90
2019-01-23T18:11:04.795Z,96.50
2019-01-23T18:13:32.047Z,112.88
2019-01-23T18:16:11.151Z,99.75
2019-01-23T18:18:38.592Z,111.90
2019-01-23T18:21:05.787Z,106.80
2019-01-23T18:23:35.159Z,107.15
2019-01-23T18:26:02.592Z,97.80
2019-01-23T18:28:30.033Z,112.90
2019-01-23T18:31:09.074Z,102.82
2019-01-23T18:33:44.722Z,108.50
2019-01-23T18:37:12.152Z,109.45
2019-01-23T18:40:08.168Z,106.10
2019-01-23T18:43:15.536Z,99.87
2019-01-23T18:46:10.626Z,105.75
2019-01-23T18:49:10.944Z,102.67
2019-01-23T18:51:44.004Z,114.03
2019-01-23T18:54:11.196Z,99.87
2019-01-23T18:56:38.479Z,102.32
2019-01-23T18:59:05.846Z,101.65
2019-01-23T19:01:33.109Z,98.12
2019-01-23T19:04:00.292Z,114.30
2019-01-23T19:06:27.569Z,109.27
2019-01-23T19:08:55.040Z,105.45
2019-01-23T19:11:23.607Z,102.72
2019-01-23T19:13:50.895Z,100.18
2019-01-23T19:16:18.239Z,110.05
2019-01-23T19:18:46.348Z,95.67
2019-01-23T19:21:13.712Z,103.17
2019-01-23T19:23:41.454Z,116.15
2019-01-23T19:26:08.649Z,103.22
2019-01-23T19:28:37.872Z,105.05
2019-01-23T19:31:05.034Z,97.40
2019-01-23T19:33:32.269Z,102.82
2019-01-23T19:35:59.644Z,115.15
2019-01-23T19:38:29.482Z,103.47
2019-01-23T19:40:56.854Z,106.52
2019-01-23T19:43:24.490Z,126.15
2019-01-23T19:45:51.776Z,115.65
2019-01-23T19:48:19.147Z,105.97
2019-01-23T19:50:49.839Z,111.10
2019-01-23T19:53:17.630Z,104.70
2019-01-23T19:55:45.337Z,121.35
2019-01-23T19:58:13.541Z,97.80
2019-01-23T20:00:41.033Z,112.72
2019-01-23T20:03:08.506Z,125.42
2019-01-23T20:05:37.156Z,116.45
2019-01-23T20:08:06.194Z,118.20
2019-01-23T20:10:33.797Z,124.60
2019-01-23T20:13:01.084Z,124.35
2019-01-23T20:15:31.950Z,112.85
2019-01-23T20:18:02.921Z,125.27
2019-01-23T20:20:32.039Z,121.97
2019-01-23T20:22:59.220Z,113.22
2019-01-23T20:25:26.732Z,131.95
2019-01-23T20:27:54.563Z,114.20
2019-01-23T20:30:33.872Z,116.95
2019-01-23T20:33:01.205Z,118.77
2019-01-23T20:35:28.815Z,120.00
2019-01-23T20:37:56.768Z,114.47
2019-01-23T20:40:24.450Z,119.55
2019-01-23T20:42:51.557Z,135.20
2019-01-23T20:45:18.929Z,117.80
2019-01-23T20:47:46.042Z,127.05
2019-01-23T20:50:24.353Z,116.97
2019-01-23T20:52:52.333Z,138.25
2019-01-23T20:55:19.785Z,127.00
2019-01-23T20:57:49.400Z,111.42
2019-01-23T21:00:18.787Z,106.75
2019-01-23T21:02:46.025Z,138.85
2019-01-23T21:05:15.963Z,123.53
2019-01-23T21:07:43.122Z,118.67
2019-01-23T21:10:11.387Z,124.40
2019-01-23T21:12:38.516Z,123.20
2019-01-23T21:15:05.757Z,117.67
2019-01-23T21:17:32.882Z,122.62
2019-01-23T21:20:00.032Z,119.30
2019-01-23T21:22:27.159Z,128.25
2019-01-23T21:24:54.289Z,119.20
2019-01-23T21:27:21.444Z,123.05
2019-01-23T21:29:48.556Z,128.32
2019-01-23T21:32:15.685Z,116.57
2019-01-23T21:34:42.814Z,111.62
2019-01-23T21:37:09.940Z,117.53
2019-01-23T21:39:37.077Z,127.95
2019-01-23T21:42:04.175Z,116.88
2019-01-23T21:44:31.620Z,126.12
2019-01-23T21:46:58.712Z,125.18
2019-01-23T21:49:25.807Z,113.42
2019-01-23T21:51:54.784Z,106.87
2019-01-23T21:54:21.910Z,124.02
2019-01-23T21:56:49.002Z,119.90
2019-01-23T21:59:16.116Z,128.78
2019-01-23T22:01:44.622Z,121.13
2019-01-23T22:04:11.726Z,129.07
2019-01-23T22:06:39.081Z,117.47
2019-01-23T22:09:07.665Z,117.08
2019-01-23T22:11:34.761Z,106.05
2019-01-23T22:14:01.843Z,96.57
2019-01-23T22:16:28.876Z,111.95
2019-01-23T22:18:55.961Z,110.57
2019-01-23T22:21:22.997Z,112.52
2019-01-23T22:23:50.032Z,118.75
2019-01-23T22:26:17.096Z,107.87
2019-01-23T22:28:44.122Z,102.10
2019-01-23T22:31:11.168Z,102.55
2019-01-23T22:33:38.242Z,111.20
2019-01-23T22:36:05.303Z,111.20
2019-01-23T22:38:32.328Z,114.57
2019-01-23T22:40:59.373Z,109.27
2019-01-23T22:43:26.427Z,117.37
2019-01-23T22:45:53.501Z,105.72
2019-01-23T22:48:20.551Z,118.62
2019-01-23T22:50:47.609Z,107.85
2019-01-23T22:53:14.668Z,108.30
2019-01-23T22:55:41.716Z,115.15
2019-01-23T22:58:08.777Z,103.78
2019-01-23T23:01:12.459Z,92.90
2019-01-23T23:03:39.628Z,100.50
2019-01-23T23:06:06.678Z,102.42
2019-01-23T23:08:33.706Z,104.80
2019-01-23T23:11:00.750Z,107.07
2019-01-23T23:13:27.792Z,102.85
2019-01-23T23:15:56.632Z,105.07
2019-01-23T23:18:23.680Z,114.75
2019-01-23T23:20:50.745Z,110.72
2019-01-23T23:23:18.103Z,97.27
2019-01-23T23:25:45.994Z,114.35
2019-01-23T23:28:13.068Z,110.40
2019-01-23T23:30:40.114Z,102.12
2019-01-23T23:33:07.164Z,106.35
2019-01-23T23:35:34.217Z,112.42
2019-01-23T23:38:01.240Z,96.30
2019-01-23T23:40:28.283Z,103.92
2019-01-23T23:42:55.304Z,105.37
2019-01-23T23:45:22.342Z,95.65
2019-01-23T23:47:49.391Z,103.53
2019-01-23T23:50:16.543Z,99.50
2019-01-23T23:52:43.572Z,100.15
2019-01-23T23:55:10.861Z,98.25
2019-01-23T23:57:37.882Z,100.33
